sensor_id;sensor_type;location;lat;lon;timestamp;P1;durP1;ratioP1;P2;durP2;ratioP2
19940;SDS011;10132;50.864;5.176;2022-11-15T00:00:41;16.30;;;12.17;;
19940;SDS011;10132;50.864;5.176;2022-11-15T00:02:43;17.30;;;14.00;;
19940;SDS011;10132;50.864;5.176;2022-11-15T00:04:46;18.27;;;13.20;;
19940;SDS011;10132;50.864;5.176;2022-11-15T00:06:48;15.07;;;13.37;;
19940;SDS011;10132;50.864;5.176;2022-11-15T00:08:50;15.13;;;12.70;;
19940;SDS011;10132;50.864;5.176;2022-11-15T00:10:54;16.80;;;12.93;;
19940;SDS011;10132;50.864;5.176;2022-11-15T00:12:56;18.37;;;12.73;;
19940;SDS011;10132;50.864;5.176;2022-11-15T00:14:58;17.10;;;12.60;;
19940;SDS011;10132;50.864;5.176;2022-11-15T00:17:00;17.03;;;13.10;;
19940;SDS011;10132;50.864;5.176;2022-11-15T00:19:02;17.40;;;12.30;;
19940;SDS011;10132;50.864;5.176;2022-11-15T00:21:06;16.80;;;12.90;;
19940;SDS011;10132;50.864;5.176;2022-11-15T00:23:09;17.10;;;13.57;;
19940;SDS011;10132;50.864;5.176;2022-11-15T00:25:11;17.77;;;13.77;;
19940;SDS011;10132;50.864;5.176;2022-11-15T00:27:13;16.13;;;13.50;;
19940;SDS011;10132;50.864;5.176;2022-11-15T00:29:15;18.00;;;13.50;;
19940;SDS011;10132;50.864;5.176;2022-11-15T00:31:17;16.03;;;12.30;;
19940;SDS011;10132;50.864;5.176;2022-11-15T00:33:19;13.90;;;12.40;;
19940;SDS011;10132;50.864;5.176;2022-11-15T00:35:21;15.60;;;13.13;;
19940;SDS011;10132;50.864;5.176;2022-11-15T00:37:24;14.80;;;12.63;;
19940;SDS011;10132;50.864;5.176;2022-11-15T00:39:26;14.50;;;12.30;;
19940;SDS011;10132;50.864;5.176;2022-11-15T00:41:28;16.47;;;12.43;;
19940;SDS011;10132;50.864;5.176;2022-11-15T00:43:30;15.07;;;12.50;;
19940;SDS011;10132;50.864;5.176;2022-11-15T00:45:32;16.40;;;12.27;;
19940;SDS011;10132;50.864;5.176;2022-11-15T00:47:34;14.27;;;12.60;;
19940;SDS011;10132;50.864;5.176;2022-11-15T00:49:36;15.87;;;12.83;;
19940;SDS011;10132;50.864;5.176;2022-11-15T00:51:37;18.20;;;12.20;;
19940;SDS011;10132;50.864;5.176;2022-11-15T00:53:41;14.20;;;12.30;;
19940;SDS011;10132;50.864;5.176;2022-11-15T00:55:43;16.67;;;13.50;;
19940;SDS011;10132;50.864;5.176;2022-11-15T00:57:45;14.93;;;12.03;;
19940;SDS011;10132;50.864;5.176;2022-11-15T00:59:47;15.87;;;12.87;;
19940;SDS011;10132;50.864;5.176;2022-11-15T01:01:49;17.70;;;12.97;;
19940;SDS011;10132;50.864;5.176;2022-11-15T01:03:51;14.37;;;12.63;;
19940;SDS011;10132;50.864;5.176;2022-11-15T01:05:53;16.40;;;12.77;;
19940;SDS011;10132;50.864;5.176;2022-11-15T01:07:59;15.50;;;12.67;;
19940;SDS011;10132;50.864;5.176;2022-11-15T01:10:03;16.03;;;12.60;;
19940;SDS011;10132;50.864;5.176;2022-11-15T01:12:06;17.10;;;12.73;;
19940;SDS011;10132;50.864;5.176;2022-11-15T01:14:08;16.73;;;12.70;;
19940;SDS011;10132;50.864;5.176;2022-11-15T01:16:10;14.10;;;12.20;;
19940;SDS011;10132;50.864;5.176;2022-11-15T01:18:16;17.17;;;12.83;;
19940;SDS011;10132;50.864;5.176;2022-11-15T01:20:18;16.43;;;12.30;;
19940;SDS011;10132;50.864;5.176;2022-11-15T01:22:20;16.80;;;12.40;;
19940;SDS011;10132;50.864;5.176;2022-11-15T01:24:22;15.57;;;12.63;;
19940;SDS011;10132;50.864;5.176;2022-11-15T01:26:25;15.87;;;12.77;;
19940;SDS011;10132;50.864;5.176;2022-11-15T01:28:29;16.73;;;12.57;;
19940;SDS011;10132;50.864;5.176;2022-11-15T01:30:32;15.83;;;12.33;;
19940;SDS011;10132;50.864;5.176;2022-11-15T01:32:34;18.33;;;13.23;;
19940;SDS011;10132;50.864;5.176;2022-11-15T01:34:36;15.93;;;12.63;;
19940;SDS011;10132;50.864;5.176;2022-11-15T01:36:38;14.77;;;12.27;;
19940;SDS011;10132;50.864;5.176;2022-11-15T01:38:40;14.27;;;12.77;;
19940;SDS011;10132;50.864;5.176;2022-11-15T01:40:41;14.90;;;12.63;;
19940;SDS011;10132;50.864;5.176;2022-11-15T01:42:45;16.73;;;13.00;;
19940;SDS011;10132;50.864;5.176;2022-11-15T01:44:47;17.27;;;13.20;;
19940;SDS011;10132;50.864;5.176;2022-11-15T01:46:51;14.57;;;13.03;;
19940;SDS011;10132;50.864;5.176;2022-11-15T01:48:53;13.97;;;12.53;;
19940;SDS011;10132;50.864;5.176;2022-11-15T01:50:59;14.93;;;13.20;;
19940;SDS011;10132;50.864;5.176;2022-11-15T01:53:03;15.63;;;13.10;;
19940;SDS011;10132;50.864;5.176;2022-11-15T01:55:06;15.67;;;12.53;;
19940;SDS011;10132;50.864;5.176;2022-11-15T01:57:11;15.80;;;12.93;;
19940;SDS011;10132;50.864;5.176;2022-11-15T01:59:15;15.23;;;12.73;;
19940;SDS011;10132;50.864;5.176;2022-11-15T02:01:18;15.13;;;12.90;;
19940;SDS011;10132;50.864;5.176;2022-11-15T02:03:20;19.00;;;13.23;;
19940;SDS011;10132;50.864;5.176;2022-11-15T02:05:27;15.00;;;12.10;;
19940;SDS011;10132;50.864;5.176;2022-11-15T02:07:31;14.67;;;12.97;;
19940;SDS011;10132;50.864;5.176;2022-11-15T02:09:35;15.13;;;11.80;;
19940;SDS011;10132;50.864;5.176;2022-11-15T02:11:37;17.47;;;12.37;;
19940;SDS011;10132;50.864;5.176;2022-11-15T02:13:39;14.67;;;11.53;;
19940;SDS011;10132;50.864;5.176;2022-11-15T02:15:44;15.13;;;12.70;;
19940;SDS011;10132;50.864;5.176;2022-11-15T02:18:03;15.03;;;11.90;;
19940;SDS011;10132;50.864;5.176;2022-11-15T02:20:28;12.77;;;11.40;;
19940;SDS011;10132;50.864;5.176;2022-11-15T02:22:46;14.50;;;11.40;;
19940;SDS011;10132;50.864;5.176;2022-11-15T02:25:08;14.13;;;11.93;;
19940;SDS011;10132;50.864;5.176;2022-11-15T02:27:38;14.70;;;11.43;;
19940;SDS011;10132;50.864;5.176;2022-11-15T02:30:03;15.93;;;11.97;;
19940;SDS011;10132;50.864;5.176;2022-11-15T02:32:20;13.10;;;11.27;;
19940;SDS011;10132;50.864;5.176;2022-11-15T02:34:28;15.43;;;11.47;;
19940;SDS011;10132;50.864;5.176;2022-11-15T02:36:38;12.67;;;11.03;;
19940;SDS011;10132;50.864;5.176;2022-11-15T02:38:44;15.47;;;11.37;;
19940;SDS011;10132;50.864;5.176;2022-11-15T02:40:54;12.63;;;10.80;;
19940;SDS011;10132;50.864;5.176;2022-11-15T02:43:01;15.77;;;10.83;;
19940;SDS011;10132;50.864;5.176;2022-11-15T02:45:28;14.20;;;11.23;;
19940;SDS011;10132;50.864;5.176;2022-11-15T02:47:34;12.47;;;11.13;;
19940;SDS011;10132;50.864;5.176;2022-11-15T02:49:41;14.57;;;10.87;;
19940;SDS011;10132;50.864;5.176;2022-11-15T02:51:46;13.33;;;11.20;;
19940;SDS011;10132;50.864;5.176;2022-11-15T02:53:50;13.80;;;11.37;;
19940;SDS011;10132;50.864;5.176;2022-11-15T02:55:52;16.50;;;11.20;;
19940;SDS011;10132;50.864;5.176;2022-11-15T02:58:00;11.93;;;10.67;;
19940;SDS011;10132;50.864;5.176;2022-11-15T03:00:16;11.80;;;10.60;;
19940;SDS011;10132;50.864;5.176;2022-11-15T03:02:23;12.00;;;10.40;;
19940;SDS011;10132;50.864;5.176;2022-11-15T03:04:39;13.60;;;10.83;;
19940;SDS011;10132;50.864;5.176;2022-11-15T03:06:46;14.70;;;10.93;;
19940;SDS011;10132;50.864;5.176;2022-11-15T03:08:56;14.23;;;11.37;;
19940;SDS011;10132;50.864;5.176;2022-11-15T03:11:07;11.43;;;9.83;;
19940;SDS011;10132;50.864;5.176;2022-11-15T03:13:15;11.87;;;10.13;;
19940;SDS011;10132;50.864;5.176;2022-11-15T03:15:24;16.73;;;10.33;;
19940;SDS011;10132;50.864;5.176;2022-11-15T03:17:32;13.33;;;9.93;;
19940;SDS011;10132;50.864;5.176;2022-11-15T03:19:38;11.90;;;10.23;;
19940;SDS011;10132;50.864;5.176;2022-11-15T03:21:45;14.00;;;10.50;;
19940;SDS011;10132;50.864;5.176;2022-11-15T03:23:48;13.77;;;10.13;;
19940;SDS011;10132;50.864;5.176;2022-11-15T03:25:51;12.70;;;10.10;;
19940;SDS011;10132;50.864;5.176;2022-11-15T03:27:56;11.03;;;9.93;;
19940;SDS011;10132;50.864;5.176;2022-11-15T03:30:03;11.37;;;9.70;;
19940;SDS011;10132;50.864;5.176;2022-11-15T03:32:07;11.13;;;9.37;;
19940;SDS011;10132;50.864;5.176;2022-11-15T03:34:16;10.67;;;9.57;;
19940;SDS011;10132;50.864;5.176;2022-11-15T03:36:23;12.63;;;9.57;;
19940;SDS011;10132;50.864;5.176;2022-11-15T03:38:27;10.70;;;8.83;;
19940;SDS011;10132;50.864;5.176;2022-11-15T03:40:34;10.50;;;9.43;;
19940;SDS011;10132;50.864;5.176;2022-11-15T03:42:41;12.83;;;9.57;;
19940;SDS011;10132;50.864;5.176;2022-11-15T03:44:50;11.07;;;8.80;;
19940;SDS011;10132;50.864;5.176;2022-11-15T03:46:57;11.87;;;9.50;;
19940;SDS011;10132;50.864;5.176;2022-11-15T03:49:04;11.80;;;9.77;;
19940;SDS011;10132;50.864;5.176;2022-11-15T03:51:11;12.87;;;9.13;;
19940;SDS011;10132;50.864;5.176;2022-11-15T03:53:14;9.80;;;8.80;;
19940;SDS011;10132;50.864;5.176;2022-11-15T03:55:18;12.10;;;9.33;;
19940;SDS011;10132;50.864;5.176;2022-11-15T03:57:21;10.27;;;9.13;;
19940;SDS011;10132;50.864;5.176;2022-11-15T03:59:23;12.27;;;9.30;;
19940;SDS011;10132;50.864;5.176;2022-11-15T04:01:25;10.30;;;9.17;;
19940;SDS011;10132;50.864;5.176;2022-11-15T04:03:27;10.20;;;9.10;;
19940;SDS011;10132;50.864;5.176;2022-11-15T04:05:29;10.37;;;8.90;;
19940;SDS011;10132;50.864;5.176;2022-11-15T04:07:32;10.83;;;8.77;;
19940;SDS011;10132;50.864;5.176;2022-11-15T04:09:34;10.37;;;8.83;;
19940;SDS011;10132;50.864;5.176;2022-11-15T04:11:57;10.20;;;8.83;;
19940;SDS011;10132;50.864;5.176;2022-11-15T04:13:59;10.47;;;8.13;;
19940;SDS011;10132;50.864;5.176;2022-11-15T04:16:01;10.57;;;8.87;;
19940;SDS011;10132;50.864;5.176;2022-11-15T04:18:03;12.20;;;8.70;;
19940;SDS011;10132;50.864;5.176;2022-11-15T04:20:06;10.63;;;8.30;;
19940;SDS011;10132;50.864;5.176;2022-11-15T04:22:27;9.20;;;8.27;;
19940;SDS011;10132;50.864;5.176;2022-11-15T04:24:50;9.47;;;8.47;;
19940;SDS011;10132;50.864;5.176;2022-11-15T04:26:51;10.23;;;8.90;;
19940;SDS011;10132;50.864;5.176;2022-11-15T04:28:53;10.20;;;9.20;;
19940;SDS011;10132;50.864;5.176;2022-11-15T04:31:12;10.03;;;9.03;;
19940;SDS011;10132;50.864;5.176;2022-11-15T04:33:15;14.30;;;9.90;;
19940;SDS011;10132;50.864;5.176;2022-11-15T04:35:17;11.70;;;9.93;;
19940;SDS011;10132;50.864;5.176;2022-11-15T04:37:18;12.23;;;10.30;;
19940;SDS011;10132;50.864;5.176;2022-11-15T04:39:19;8.23;;;7.30;;
19940;SDS011;10132;50.864;5.176;2022-11-15T04:41:23;7.43;;;5.90;;
19940;SDS011;10132;50.864;5.176;2022-11-15T04:43:25;8.30;;;5.57;;
19940;SDS011;10132;50.864;5.176;2022-11-15T04:45:26;6.47;;;5.03;;
19940;SDS011;10132;50.864;5.176;2022-11-15T04:47:28;5.60;;;3.97;;
19940;SDS011;10132;50.864;5.176;2022-11-15T04:49:30;5.30;;;3.77;;
19940;SDS011;10132;50.864;5.176;2022-11-15T04:51:32;4.03;;;3.50;;
19940;SDS011;10132;50.864;5.176;2022-11-15T04:53:34;7.37;;;3.87;;
19940;SDS011;10132;50.864;5.176;2022-11-15T04:55:36;5.93;;;4.33;;
19940;SDS011;10132;50.864;5.176;2022-11-15T04:57:39;5.33;;;4.83;;
19940;SDS011;10132;50.864;5.176;2022-11-15T04:59:41;7.97;;;5.03;;
19940;SDS011;10132;50.864;5.176;2022-11-15T05:01:43;7.00;;;5.53;;
19940;SDS011;10132;50.864;5.176;2022-11-15T05:03:45;7.00;;;5.77;;
19940;SDS011;10132;50.864;5.176;2022-11-15T05:06:05;6.53;;;5.63;;
19940;SDS011;10132;50.864;5.176;2022-11-15T05:08:07;7.20;;;5.83;;
19940;SDS011;10132;50.864;5.176;2022-11-15T05:10:09;7.67;;;5.60;;
19940;SDS011;10132;50.864;5.176;2022-11-15T05:12:12;7.90;;;6.13;;
19940;SDS011;10132;50.864;5.176;2022-11-15T05:14:15;7.13;;;6.20;;
19940;SDS011;10132;50.864;5.176;2022-11-15T05:16:17;7.47;;;5.53;;
19940;SDS011;10132;50.864;5.176;2022-11-15T05:18:19;7.33;;;5.93;;
19940;SDS011;10132;50.864;5.176;2022-11-15T05:20:21;8.40;;;5.80;;
19940;SDS011;10132;50.864;5.176;2022-11-15T05:22:23;6.60;;;5.60;;
19940;SDS011;10132;50.864;5.176;2022-11-15T05:24:25;8.07;;;6.23;;
19940;SDS011;10132;50.864;5.176;2022-11-15T05:26:27;6.17;;;5.43;;
19940;SDS011;10132;50.864;5.176;2022-11-15T05:28:29;8.70;;;6.10;;
19940;SDS011;10132;50.864;5.176;2022-11-15T05:30:33;6.73;;;5.60;;
19940;SDS011;10132;50.864;5.176;2022-11-15T05:32:35;6.43;;;5.83;;
19940;SDS011;10132;50.864;5.176;2022-11-15T05:34:37;7.00;;;5.70;;
19940;SDS011;10132;50.864;5.176;2022-11-15T05:36:41;10.17;;;5.80;;
19940;SDS011;10132;50.864;5.176;2022-11-15T05:38:44;8.20;;;5.03;;
19940;SDS011;10132;50.864;5.176;2022-11-15T05:40:48;6.50;;;5.13;;
19940;SDS011;10132;50.864;5.176;2022-11-15T05:42:50;6.87;;;5.23;;
19940;SDS011;10132;50.864;5.176;2022-11-15T05:44:52;6.57;;;4.83;;
19940;SDS011;10132;50.864;5.176;2022-11-15T05:46:55;5.80;;;4.90;;
19940;SDS011;10132;50.864;5.176;2022-11-15T05:48:58;5.10;;;4.60;;
19940;SDS011;10132;50.864;5.176;2022-11-15T05:51:01;5.17;;;4.63;;
19940;SDS011;10132;50.864;5.176;2022-11-15T05:53:04;6.50;;;4.93;;
19940;SDS011;10132;50.864;5.176;2022-11-15T05:55:07;5.00;;;4.50;;
19940;SDS011;10132;50.864;5.176;2022-11-15T05:57:10;6.47;;;4.40;;
19940;SDS011;10132;50.864;5.176;2022-11-15T05:59:12;6.63;;;4.67;;
19940;SDS011;10132;50.864;5.176;2022-11-15T06:01:15;5.13;;;4.63;;
19940;SDS011;10132;50.864;5.176;2022-11-15T06:03:18;8.13;;;4.93;;
19940;SDS011;10132;50.864;5.176;2022-11-15T06:05:20;6.30;;;4.97;;
19940;SDS011;10132;50.864;5.176;2022-11-15T06:07:22;7.47;;;5.20;;
19940;SDS011;10132;50.864;5.176;2022-11-15T06:09:24;7.80;;;5.57;;
19940;SDS011;10132;50.864;5.176;2022-11-15T06:11:25;8.77;;;6.03;;
19940;SDS011;10132;50.864;5.176;2022-11-15T06:13:27;7.47;;;5.73;;
19940;SDS011;10132;50.864;5.176;2022-11-15T06:15:29;7.37;;;6.10;;
19940;SDS011;10132;50.864;5.176;2022-11-15T06:17:32;8.07;;;5.93;;
19940;SDS011;10132;50.864;5.176;2022-11-15T06:19:36;6.53;;;5.60;;
19940;SDS011;10132;50.864;5.176;2022-11-15T06:21:38;8.03;;;5.93;;
19940;SDS011;10132;50.864;5.176;2022-11-15T06:23:40;6.27;;;5.70;;
19940;SDS011;10132;50.864;5.176;2022-11-15T06:25:41;8.77;;;5.67;;
19940;SDS011;10132;50.864;5.176;2022-11-15T06:27:43;6.67;;;5.53;;
19940;SDS011;10132;50.864;5.176;2022-11-15T06:29:51;7.77;;;5.53;;
19940;SDS011;10132;50.864;5.176;2022-11-15T06:31:53;6.23;;;5.00;;
19940;SDS011;10132;50.864;5.176;2022-11-15T06:33:55;6.20;;;5.07;;
19940;SDS011;10132;50.864;5.176;2022-11-15T06:36:01;8.33;;;5.30;;
19940;SDS011;10132;50.864;5.176;2022-11-15T06:38:03;5.53;;;4.90;;
19940;SDS011;10132;50.864;5.176;2022-11-15T06:40:07;7.70;;;5.10;;
19940;SDS011;10132;50.864;5.176;2022-11-15T06:42:10;7.97;;;5.77;;
19940;SDS011;10132;50.864;5.176;2022-11-15T06:44:12;6.17;;;5.07;;
19940;SDS011;10132;50.864;5.176;2022-11-15T06:46:14;6.80;;;4.80;;
19940;SDS011;10132;50.864;5.176;2022-11-15T06:48:16;6.90;;;5.40;;
19940;SDS011;10132;50.864;5.176;2022-11-15T06:50:18;6.50;;;4.70;;
19940;SDS011;10132;50.864;5.176;2022-11-15T06:52:21;6.20;;;4.73;;
19940;SDS011;10132;50.864;5.176;2022-11-15T06:54:23;8.43;;;4.83;;
19940;SDS011;10132;50.864;5.176;2022-11-15T06:56:25;6.87;;;4.73;;
19940;SDS011;10132;50.864;5.176;2022-11-15T06:58:27;6.00;;;4.60;;
19940;SDS011;10132;50.864;5.176;2022-11-15T07:00:29;7.17;;;4.50;;
19940;SDS011;10132;50.864;5.176;2022-11-15T07:02:31;4.70;;;4.17;;
19940;SDS011;10132;50.864;5.176;2022-11-15T07:04:33;5.90;;;4.60;;
19940;SDS011;10132;50.864;5.176;2022-11-15T07:06:36;6.53;;;3.97;;
19940;SDS011;10132;50.864;5.176;2022-11-15T07:08:39;5.77;;;4.13;;
19940;SDS011;10132;50.864;5.176;2022-11-15T07:10:42;5.53;;;4.10;;
19940;SDS011;10132;50.864;5.176;2022-11-15T07:12:46;5.13;;;4.23;;
19940;SDS011;10132;50.864;5.176;2022-11-15T07:14:48;7.17;;;4.07;;
19940;SDS011;10132;50.864;5.176;2022-11-15T07:16:50;6.37;;;3.90;;
19940;SDS011;10132;50.864;5.176;2022-11-15T07:18:52;5.77;;;4.30;;
19940;SDS011;10132;50.864;5.176;2022-11-15T07:20:54;5.20;;;4.13;;
19940;SDS011;10132;50.864;5.176;2022-11-15T07:22:59;7.90;;;4.07;;
19940;SDS011;10132;50.864;5.176;2022-11-15T07:25:03;6.07;;;4.57;;
19940;SDS011;10132;50.864;5.176;2022-11-15T07:27:05;6.00;;;4.70;;
19940;SDS011;10132;50.864;5.176;2022-11-15T07:29:07;5.60;;;4.70;;
19940;SDS011;10132;50.864;5.176;2022-11-15T07:31:09;8.77;;;5.10;;
19940;SDS011;10132;50.864;5.176;2022-11-15T07:33:11;8.13;;;4.73;;
19940;SDS011;10132;50.864;5.176;2022-11-15T07:35:13;5.97;;;5.17;;
19940;SDS011;10132;50.864;5.176;2022-11-15T07:37:16;7.10;;;5.47;;
19940;SDS011;10132;50.864;5.176;2022-11-15T07:39:18;7.27;;;4.90;;
19940;SDS011;10132;50.864;5.176;2022-11-15T07:41:21;5.90;;;4.90;;
19940;SDS011;10132;50.864;5.176;2022-11-15T07:43:23;5.53;;;5.03;;
19940;SDS011;10132;50.864;5.176;2022-11-15T07:45:27;7.00;;;5.20;;
19940;SDS011;10132;50.864;5.176;2022-11-15T07:47:29;5.63;;;4.70;;
19940;SDS011;10132;50.864;5.176;2022-11-15T07:49:31;6.67;;;5.00;;
19940;SDS011;10132;50.864;5.176;2022-11-15T07:51:33;6.47;;;4.60;;
19940;SDS011;10132;50.864;5.176;2022-11-15T07:53:35;6.63;;;4.80;;
19940;SDS011;10132;50.864;5.176;2022-11-15T07:55:39;5.93;;;4.97;;
19940;SDS011;10132;50.864;5.176;2022-11-15T07:57:43;6.30;;;4.70;;
19940;SDS011;10132;50.864;5.176;2022-11-15T07:59:44;6.80;;;4.73;;
19940;SDS011;10132;50.864;5.176;2022-11-15T08:01:46;5.90;;;4.70;;
19940;SDS011;10132;50.864;5.176;2022-11-15T08:03:48;8.87;;;4.87;;
19940;SDS011;10132;50.864;5.176;2022-11-15T08:05:50;4.50;;;4.10;;
19940;SDS011;10132;50.864;5.176;2022-11-15T08:07:54;6.97;;;3.77;;
19940;SDS011;10132;50.864;5.176;2022-11-15T08:09:56;6.33;;;3.83;;
19940;SDS011;10132;50.864;5.176;2022-11-15T08:11:58;5.27;;;3.73;;
19940;SDS011;10132;50.864;5.176;2022-11-15T08:14:02;3.83;;;3.37;;
19940;SDS011;10132;50.864;5.176;2022-11-15T08:16:04;3.87;;;3.13;;
19940;SDS011;10132;50.864;5.176;2022-11-15T08:18:08;7.33;;;3.03;;
19940;SDS011;10132;50.864;5.176;2022-11-15T08:20:11;4.10;;;2.50;;
19940;SDS011;10132;50.864;5.176;2022-11-15T08:22:13;9.23;;;2.87;;
19940;SDS011;10132;50.864;5.176;2022-11-15T08:24:15;4.43;;;2.30;;
19940;SDS011;10132;50.864;5.176;2022-11-15T08:26:17;5.77;;;2.27;;
19940;SDS011;10132;50.864;5.176;2022-11-15T08:28:19;3.43;;;1.87;;
19940;SDS011;10132;50.864;5.176;2022-11-15T08:30:23;3.70;;;2.13;;
19940;SDS011;10132;50.864;5.176;2022-11-15T08:32:25;5.00;;;1.77;;
19940;SDS011;10132;50.864;5.176;2022-11-15T08:34:27;3.80;;;1.67;;
19940;SDS011;10132;50.864;5.176;2022-11-15T08:36:29;7.40;;;1.80;;
19940;SDS011;10132;50.864;5.176;2022-11-15T08:38:31;5.50;;;1.47;;
19940;SDS011;10132;50.864;5.176;2022-11-15T08:40:33;3.37;;;1.30;;
19940;SDS011;10132;50.864;5.176;2022-11-15T08:42:35;4.10;;;1.27;;
19940;SDS011;10132;50.864;5.176;2022-11-15T08:44:37;4.20;;;1.50;;
19940;SDS011;10132;50.864;5.176;2022-11-15T08:46:40;4.17;;;1.30;;
19940;SDS011;10132;50.864;5.176;2022-11-15T08:48:43;3.10;;;1.40;;
19940;SDS011;10132;50.864;5.176;2022-11-15T08:50:44;4.03;;;1.20;;
19940;SDS011;10132;50.864;5.176;2022-11-15T08:52:46;4.17;;;1.10;;
19940;SDS011;10132;50.864;5.176;2022-11-15T08:54:48;3.73;;;1.30;;
19940;SDS011;10132;50.864;5.176;2022-11-15T08:56:50;4.23;;;1.13;;
19940;SDS011;10132;50.864;5.176;2022-11-15T08:58:52;4.63;;;1.40;;
19940;SDS011;10132;50.864;5.176;2022-11-15T09:00:54;4.03;;;1.10;;
19940;SDS011;10132;50.864;5.176;2022-11-15T09:02:58;4.77;;;1.17;;
19940;SDS011;10132;50.864;5.176;2022-11-15T09:05:00;5.70;;;1.20;;
19940;SDS011;10132;50.864;5.176;2022-11-15T09:07:02;3.33;;;1.00;;
19940;SDS011;10132;50.864;5.176;2022-11-15T09:09:04;3.47;;;1.10;;
19940;SDS011;10132;50.864;5.176;2022-11-15T09:11:06;5.30;;;1.03;;
19940;SDS011;10132;50.864;5.176;2022-11-15T09:13:09;3.27;;;0.90;;
19940;SDS011;10132;50.864;5.176;2022-11-15T09:15:12;3.03;;;0.97;;
19940;SDS011;10132;50.864;5.176;2022-11-15T09:17:14;3.87;;;0.87;;
19940;SDS011;10132;50.864;5.176;2022-11-15T09:19:17;3.83;;;1.30;;
19940;SDS011;10132;50.864;5.176;2022-11-15T09:21:19;5.63;;;1.10;;
19940;SDS011;10132;50.864;5.176;2022-11-15T09:23:21;3.53;;;1.00;;
19940;SDS011;10132;50.864;5.176;2022-11-15T09:25:24;3.47;;;1.17;;
19940;SDS011;10132;50.864;5.176;2022-11-15T09:27:27;6.30;;;1.20;;
19940;SDS011;10132;50.864;5.176;2022-11-15T09:29:29;3.43;;;1.10;;
19940;SDS011;10132;50.864;5.176;2022-11-15T09:31:31;4.80;;;1.30;;
19940;SDS011;10132;50.864;5.176;2022-11-15T09:33:33;4.10;;;1.13;;
19940;SDS011;10132;50.864;5.176;2022-11-15T09:35:36;5.83;;;1.23;;
19940;SDS011;10132;50.864;5.176;2022-11-15T09:37:38;4.97;;;1.50;;
19940;SDS011;10132;50.864;5.176;2022-11-15T09:39:40;6.93;;;1.40;;
19940;SDS011;10132;50.864;5.176;2022-11-15T09:41:50;3.63;;;1.30;;
19940;SDS011;10132;50.864;5.176;2022-11-15T09:44:03;5.77;;;1.37;;
19940;SDS011;10132;50.864;5.176;2022-11-15T09:46:14;6.93;;;2.10;;
19940;SDS011;10132;50.864;5.176;2022-11-15T09:48:29;3.87;;;1.20;;
19940;SDS011;10132;50.864;5.176;2022-11-15T09:50:51;4.57;;;1.30;;
19940;SDS011;10132;50.864;5.176;2022-11-15T09:52:59;4.27;;;1.30;;
19940;SDS011;10132;50.864;5.176;2022-11-15T09:55:01;4.07;;;1.27;;
19940;SDS011;10132;50.864;5.176;2022-11-15T09:57:09;4.43;;;1.23;;
19940;SDS011;10132;50.864;5.176;2022-11-15T09:59:27;5.20;;;1.13;;
19940;SDS011;10132;50.864;5.176;2022-11-15T10:01:41;7.40;;;1.47;;
19940;SDS011;10132;50.864;5.176;2022-11-15T10:03:48;4.73;;;1.33;;
19940;SDS011;10132;50.864;5.176;2022-11-15T10:05:53;4.90;;;1.17;;
19940;SDS011;10132;50.864;5.176;2022-11-15T10:08:01;2.87;;;1.30;;
19940;SDS011;10132;50.864;5.176;2022-11-15T10:10:13;4.93;;;1.30;;
19940;SDS011;10132;50.864;5.176;2022-11-15T10:12:19;2.97;;;1.17;;
19940;SDS011;10132;50.864;5.176;2022-11-15T10:14:22;3.73;;;1.20;;
19940;SDS011;10132;50.864;5.176;2022-11-15T10:16:34;3.00;;;1.30;;
19940;SDS011;10132;50.864;5.176;2022-11-15T10:18:55;6.83;;;1.57;;
19940;SDS011;10132;50.864;5.176;2022-11-15T10:21:15;4.57;;;1.20;;
19940;SDS011;10132;50.864;5.176;2022-11-15T10:23:21;3.43;;;1.10;;
19940;SDS011;10132;50.864;5.176;2022-11-15T10:25:25;3.93;;;1.20;;
19940;SDS011;10132;50.864;5.176;2022-11-15T10:27:29;5.00;;;1.23;;
19940;SDS011;10132;50.864;5.176;2022-11-15T10:29:31;4.10;;;1.23;;
19940;SDS011;10132;50.864;5.176;2022-11-15T10:31:32;3.90;;;1.07;;
19940;SDS011;10132;50.864;5.176;2022-11-15T10:33:35;3.57;;;1.30;;
19940;SDS011;10132;50.864;5.176;2022-11-15T10:35:39;3.33;;;0.93;;
19940;SDS011;10132;50.864;5.176;2022-11-15T10:37:42;2.90;;;0.90;;
19940;SDS011;10132;50.864;5.176;2022-11-15T10:39:44;6.10;;;1.27;;
19940;SDS011;10132;50.864;5.176;2022-11-15T10:42:17;3.40;;;1.30;;
19940;SDS011;10132;50.864;5.176;2022-11-15T10:44:26;5.40;;;1.07;;
19940;SDS011;10132;50.864;5.176;2022-11-15T10:46:31;5.47;;;1.10;;
19940;SDS011;10132;50.864;5.176;2022-11-15T10:48:33;4.90;;;1.27;;
19940;SDS011;10132;50.864;5.176;2022-11-15T10:50:36;5.13;;;1.30;;
19940;SDS011;10132;50.864;5.176;2022-11-15T10:52:43;3.90;;;0.90;;
19940;SDS011;10132;50.864;5.176;2022-11-15T10:54:48;8.50;;;1.50;;
19940;SDS011;10132;50.864;5.176;2022-11-15T10:56:53;4.57;;;1.00;;
19940;SDS011;10132;50.864;5.176;2022-11-15T10:58:56;5.67;;;1.33;;
19940;SDS011;10132;50.864;5.176;2022-11-15T11:01:08;5.70;;;0.90;;
19940;SDS011;10132;50.864;5.176;2022-11-15T11:03:26;4.77;;;1.23;;
19940;SDS011;10132;50.864;5.176;2022-11-15T11:05:31;3.23;;;1.00;;
19940;SDS011;10132;50.864;5.176;2022-11-15T11:07:34;6.83;;;1.00;;
19940;SDS011;10132;50.864;5.176;2022-11-15T11:09:39;5.07;;;1.13;;
19940;SDS011;10132;50.864;5.176;2022-11-15T11:11:45;4.87;;;1.00;;
19940;SDS011;10132;50.864;5.176;2022-11-15T11:13:49;5.73;;;1.13;;
19940;SDS011;10132;50.864;5.176;2022-11-15T11:15:52;2.83;;;1.00;;
19940;SDS011;10132;50.864;5.176;2022-11-15T11:18:01;4.93;;;1.13;;
19940;SDS011;10132;50.864;5.176;2022-11-15T11:20:10;4.47;;;1.00;;
19940;SDS011;10132;50.864;5.176;2022-11-15T11:22:22;3.27;;;1.00;;
19940;SDS011;10132;50.864;5.176;2022-11-15T11:24:33;5.63;;;1.30;;
19940;SDS011;10132;50.864;5.176;2022-11-15T11:26:42;4.13;;;1.00;;
19940;SDS011;10132;50.864;5.176;2022-11-15T11:28:53;7.00;;;1.37;;
19940;SDS011;10132;50.864;5.176;2022-11-15T11:31:05;5.27;;;1.20;;
19940;SDS011;10132;50.864;5.176;2022-11-15T11:33:19;3.10;;;1.40;;
19940;SDS011;10132;50.864;5.176;2022-11-15T11:35:29;3.10;;;1.10;;
19940;SDS011;10132;50.864;5.176;2022-11-15T11:37:37;3.33;;;1.00;;
19940;SDS011;10132;50.864;5.176;2022-11-15T11:39:48;4.47;;;1.13;;
19940;SDS011;10132;50.864;5.176;2022-11-15T11:42:04;4.10;;;1.00;;
19940;SDS011;10132;50.864;5.176;2022-11-15T11:44:17;3.00;;;1.00;;
19940;SDS011;10132;50.864;5.176;2022-11-15T11:48:50;5.00;;;0.83;;
19940;SDS011;10132;50.864;5.176;2022-11-15T11:51:00;3.07;;;1.00;;
19940;SDS011;10132;50.864;5.176;2022-11-15T11:53:09;5.13;;;1.10;;
19940;SDS011;10132;50.864;5.176;2022-11-15T11:55:15;6.23;;;1.37;;
19940;SDS011;10132;50.864;5.176;2022-11-15T11:57:23;3.07;;;0.93;;
19940;SDS011;10132;50.864;5.176;2022-11-15T11:59:33;4.13;;;1.17;;
19940;SDS011;10132;50.864;5.176;2022-11-15T12:01:43;2.77;;;1.10;;
19940;SDS011;10132;50.864;5.176;2022-11-15T12:03:46;2.53;;;1.13;;
19940;SDS011;10132;50.864;5.176;2022-11-15T12:05:53;7.27;;;1.27;;
19940;SDS011;10132;50.864;5.176;2022-11-15T12:07:59;3.43;;;1.00;;
19940;SDS011;10132;50.864;5.176;2022-11-15T12:10:12;5.17;;;1.23;;
19940;SDS011;10132;50.864;5.176;2022-11-15T12:12:23;4.50;;;0.87;;
19940;SDS011;10132;50.864;5.176;2022-11-15T12:14:33;3.63;;;1.10;;
19940;SDS011;10132;50.864;5.176;2022-11-15T12:16:41;3.07;;;0.93;;
19940;SDS011;10132;50.864;5.176;2022-11-15T12:18:44;4.73;;;1.27;;
19940;SDS011;10132;50.864;5.176;2022-11-15T12:20:51;4.20;;;0.80;;
19940;SDS011;10132;50.864;5.176;2022-11-15T12:22:57;5.27;;;1.23;;
19940;SDS011;10132;50.864;5.176;2022-11-15T12:25:03;3.17;;;0.87;;
19940;SDS011;10132;50.864;5.176;2022-11-15T12:27:13;3.40;;;0.80;;